Search for airport 
image banner adimage banner adimage banner ad
image banner ad

KLOL - Derby Field

Located in Lovelock, United States

ICAO - LOL, IATA - LOL

Data provided by Airmate  

General information

Coordinates: N40°3'59" W118°33'54"
Elevation is 3908 feet MSL.
Magnetic variation is 14° East
View others Airports in Nevada

Operational data

Special qualification required
Current time UTC:
Current local time:
Weather
METAR: KLOL 130253Z AUTO 32006KT 10SM CLR 31/01 A2990 RMK AO2 SLP078 T03110011 56008
View NOTAMs / SUP AIP / TFR affecting this airport [VIEW]
Communications frequencies: [VIEW]

Runways:

RWY identifierQFULength (ft)Width (ft)SurfaceLDA (ft)
0230°552975ASPH
0890°493175ASPH
20210°552975ASPH
26270°493175ASPH

Airport contact information

Address: Lovelock United States

Satellite view of KLOL